This is the latest recevied weather packets stored in our database for station/object K0CVS. If no packets are shown the sender has not sent any weather packets the latest 10 day(s).
| Time | Temp. | Humidity | Pressure | Rain* | Wind** | Luminosity | Snow |
|---|---|---|---|---|---|---|---|
| 1777999726 | 8.33° C | 89% | 1012.9 hPa | 0 mm | - | 96 W/m² | - |
| 1777999423 | 8.33° C | 89% | 1013.1 hPa | 0 mm | - | 59 W/m² | - |
| 1777999121 | 8.33° C | 90% | 1012.7 hPa | 0 mm | - | 124 W/m² | - |
| 1777998820 | 8.33° C | 90% | 1012.8 hPa | 0 mm | - | 125 W/m² | - |
| 1777998518 | 7.78° C | 90% | 1013 hPa | 0 mm | - | 77 W/m² | - |
| 1777998214 | 7.78° C | 89% | 1012.9 hPa | 0 mm | - | 57 W/m² | - |
| 1777997911 | 7.78° C | 89% | 1013 hPa | 0 mm | - | 60 W/m² | - |
| 1777997608 | 7.78° C | 89% | 1013 hPa | 0 mm | - | 58 W/m² | - |
| 1777997305 | 7.78° C | 89% | 1013 hPa | 0 mm | - | 48 W/m² | - |
| 1777997003 | 7.78° C | 88% | 1013 hPa | 1.27 mm | - | 47 W/m² | - |
| 1777996700 | 7.78° C | 88% | 1013 hPa | 1.27 mm | - | 64 W/m² | - |
| 1777996395 | 8.33° C | 88% | 1012.9 hPa | 0 mm | - | 52 W/m² | - |
| 1777996092 | 8.33° C | 87% | 1013.5 hPa | 0 mm | - | 35 W/m² | - |
| 1777995788 | 8.33° C | 87% | 1013.4 hPa | 0 mm | - | 27 W/m² | - |
| 1777995485 | 8.33° C | 87% | 1013.2 hPa | 0 mm | - | 32 W/m² | - |
| 1777995182 | 8.89° C | 88% | 1013.6 hPa | 0 mm | - | 24 W/m² | - |
| 1777994879 | 8.89° C | 90% | 1012.6 hPa | 0 mm | - | 46 W/m² | - |
| 1777994575 | 8.89° C | 89% | 1012.6 hPa | 0 mm | - | 41 W/m² | - |
| 1777994270 | 8.89° C | 89% | 1012.7 hPa | 0 mm | - | 41 W/m² | - |
| 1777993968 | 8.89° C | 89% | 1012.7 hPa | 0 mm | - | 46 W/m² | - |
| 1777993664 | 8.89° C | 90% | 1012.7 hPa | 0 mm | - | 54 W/m² | - |
| 1777993362 | 8.89° C | 91% | 1012.7 hPa | 0 mm | - | 47 W/m² | - |
| 1777993061 | 8.89° C | 90% | 1012.9 hPa | 0 mm | - | 34 W/m² | - |
| 1777992760 | 8.89° C | 91% | 1012.2 hPa | 0 mm | - | 38 W/m² | - |
| 1777992457 | 8.89° C | 90% | 1012.4 hPa | 0 mm | - | 42 W/m² | - |
* Rain latest hour (hover to see other rain measurements)
** Current wind speed in m/s (hover to see current wind gust speed)